Seabreeze 1 — V3RT5 — position and weather

sailwx.info

Track history (hours):
 
Tides and Currents Weather Stations Pressure Air Temp Water Temp Dewpoint Dewpoint Depression Visibility Wind Speed Wind Dir Waves Ship Positions

Seabreeze 1

Last reported at 2015-Mar-01 09:32 UTC. Time now 2015-Mar-06 20:11 UTC.
Position N 44°37' E 037°19'.

Length 139 m; draft 2.8 m.

Type: Cargo ship. MMSI: 312411000.

Date/timePositionNaut miles runAvg speedWind from/ knotsBaromVisibWave heightAir tempDewpointWater temp
2015-Mar-01 09:32N 44°37' E 037°19'7 6.8
2015-Mar-01 08:33N 44°32' E 037°25'7 7.4
2015-Mar-01 07:34N 44°29' E 037°35'8 7.8
2015-Mar-01 06:33N 44°26' E 037°45'8 7.5
2015-Mar-01 05:33N 44°23' E 037°54'8 7.3
2015-Mar-01 04:32N 44°20' E 038°04'22 7.6
2015-Mar-01 01:33N 44°10' E 038°32'7 7.5
2015-Mar-01 00:33N 44°07' E 038°42'8 7.6
2015-Feb-28 23:33N 44°04' E 038°51'8 7.9
2015-Feb-28 22:33N 43°58' E 038°58'8 7.9
2015-Feb-28 21:34N 43°51' E 039°05'  
Track history (hours):
 
Tides and Currents Weather Stations Pressure Air Temp Water Temp Dewpoint Dewpoint Depression Visibility Wind Speed Wind Dir Waves Ship Positions

Seabreeze 1

Last reported at 2015-Mar-01 09:32 UTC. Time now 2015-Mar-06 20:11 UTC.
Position N 44°37' E 037°19'.

Length 139 m; draft 2.8 m.

Type: Cargo ship. MMSI: 312411000.

Date/timePositionNaut miles runAvg speedWind from/ knotsBaromVisibWave heightAir tempDewpointWater temp
2015-Mar-01 09:32N 44°37' E 037°19'7 6.8
2015-Mar-01 08:33N 44°32' E 037°25'7 7.4
2015-Mar-01 07:34N 44°29' E 037°35'8 7.8
2015-Mar-01 06:33N 44°26' E 037°45'8 7.5
2015-Mar-01 05:33N 44°23' E 037°54'8 7.3
2015-Mar-01 04:32N 44°20' E 038°04'22 7.6
2015-Mar-01 01:33N 44°10' E 038°32'7 7.5
2015-Mar-01 00:33N 44°07' E 038°42'8 7.6
2015-Feb-28 23:33N 44°04' E 038°51'8 7.9
2015-Feb-28 22:33N 43°58' E 038°58'8 7.9
2015-Feb-28 21:34N 43°51' E 039°05'  

Dump ship's entire track history